Time;durP1;ratioP1;P1;durP2;ratioP2;P2;SDS_P1;SDS_P2;PMS_P1;PMS_P2;Temp;Humidity;BMP_temperature;BMP_pressure;BME280_temperature;BME280_humidity;BME280_pressure;Samples;Min_cycle;Max_cycle;Signal;HPM_P1;HPM_P2
2022/09/22 08:01:47;;;;;;;12.40;11.25;;;;;;;11.56;78.41;102126.16;5317672;27;1207855;-67
2022/09/22 08:04:22;;;;;;;12.23;11.02;;;;;;;11.64;78.32;102131.22;5328762;27;20356;-67
2022/09/22 08:06:54;;;;;;;11.65;10.23;;;;;;;11.69;77.50;102117.34;5336488;28;20015;-68
2022/09/22 08:09:28;;;;;;;11.75;9.73;;;;;;;11.70;75.56;102121.78;5343134;27;20390;-69
2022/09/22 08:12:02;;;;;;;10.55;9.50;;;;;;;11.77;75.29;102117.97;5343046;27;20031;-68
2022/09/22 08:14:36;;;;;;;10.32;9.30;;;;;;;11.84;75.31;102115.81;5342808;27;20024;-69
2022/09/22 08:17:11;;;;;;;11.23;9.80;;;;;;;11.94;75.56;102119.53;5328603;28;20383;-70
2022/09/22 08:19:43;;;;;;;10.93;9.60;;;;;;;12.01;75.92;102115.66;5342439;27;20715;-68
2022/09/22 08:22:14;;;;;;;12.07;9.80;;;;;;;12.07;75.02;102118.22;5333012;28;20031;-69
2022/09/22 08:24:45;;;;;;;11.05;9.88;;;;;;;12.20;75.10;102116.88;5341959;27;20019;-69
2022/09/22 08:27:17;;;;;;;10.43;9.50;;;;;;;12.26;74.69;102117.75;5326764;28;20509;-68
2022/09/22 08:29:49;;;;;;;12.82;10.10;;;;;;;12.35;74.17;102107.78;5325409;28;20046;-68
2022/09/22 08:32:20;;;;;;;10.82;9.13;;;;;;;12.42;73.52;102108.34;5335361;28;20024;-68
2022/09/22 08:34:56;;;;;;;11.05;9.93;;;;;;;12.42;74.10;102111.13;5342687;27;20028;-68
2022/09/22 08:37:28;;;;;;;11.25;9.82;;;;;;;12.55;73.58;102104.22;5341893;27;20027;-69
2022/09/22 08:40:00;;;;;;;11.15;10.15;;;;;;;12.65;73.08;102109.00;5341730;27;20463;-68
2022/09/22 08:42:32;;;;;;;12.10;9.07;;;;;;;12.73;72.79;102108.47;5342976;28;20379;-69
2022/09/22 08:45:23;;;;;;;12.70;10.52;;;;;;;12.83;72.98;102106.56;5342152;27;20023;-69
2022/09/22 08:53:50;;;;;;;9.50;8.73;;;;;;;13.15;71.05;102105.50;5337909;28;20474;-67
2022/09/22 08:56:50;;;;;;;10.98;8.57;;;;;;;13.19;71.31;102103.00;5342576;27;20477;-68
2022/09/22 08:59:31;;;;;;;9.32;8.40;;;;;;;13.31;69.20;102111.97;5339161;27;20020;-69
2022/09/22 09:02:40;;;;;;;8.23;7.43;;;;;;;13.35;69.29;102115.88;5341362;27;20035;-69
2022/09/22 09:05:26;;;;;;;9.73;6.53;;;;;;;13.43;67.52;102112.53;5342792;27;20061;-70
2022/09/22 09:08:27;;;;;;;9.18;6.55;;;;;;;13.55;68.36;102108.63;5332739;27;20066;-71
2022/09/22 09:11:25;;;;;;;9.85;6.93;;;;;;;13.64;66.66;102113.38;5328084;28;20035;-70
2022/09/22 09:14:14;;;;;;;7.80;5.65;;;;;;;13.79;66.66;102118.09;5326343;28;20039;-71
2022/09/22 09:17:00;;;;;;;5.75;5.15;;;;;;;13.85;66.26;102114.16;5328060;28;20069;-70
2022/09/22 09:20:09;;;;;;;6.28;5.68;;;;;;;13.99;65.90;102116.41;5319715;28;20028;-71
2022/09/22 09:22:45;;;;;;;6.07;5.30;;;;;;;14.03;64.55;102114.69;5307199;28;20036;-70
2022/09/22 09:25:28;;;;;;;6.80;5.15;;;;;;;14.14;64.97;102116.38;5320035;28;20079;-70
2022/09/22 09:28:04;;;;;;;5.90;5.13;;;;;;;14.25;63.18;102112.41;5323551;28;20059;-70
2022/09/22 09:30:51;;;;;;;5.50;5.00;;;;;;;14.29;62.65;102109.88;5326228;27;20039;-70
2022/09/22 09:33:32;;;;;;;6.63;4.97;;;;;;;14.43;61.72;102118.50;5326431;28;20031;-70
2022/09/22 09:36:11;;;;;;;8.20;4.90;;;;;;;14.44;61.17;102109.00;5326853;28;20096;-70
2022/09/22 09:38:53;;;;;;;5.80;4.20;;;;;;;14.50;60.61;102114.28;5310816;27;20028;-68
2022/09/22 09:41:31;;;;;;;4.80;4.40;;;;;;;14.50;60.49;102111.50;5306011;28;20028;-68
2022/09/22 09:44:03;;;;;;;5.00;4.40;;;;;;;14.65;59.06;102109.78;5307149;28;20032;-68
2022/09/22 09:46:46;;;;;;;5.00;4.50;;;;;;;14.69;60.54;102111.72;5307864;28;20419;-68
2022/09/22 09:49:19;;;;;;;7.07;5.05;;;;;;;14.81;61.03;102110.56;5319076;28;20040;-70
2022/09/22 09:51:58;;;;;;;6.97;5.78;;;;;;;14.77;60.76;102108.31;5320011;28;20023;-69
2022/09/22 09:54:30;;;;;;;6.07;4.82;;;;;;;14.93;60.27;102111.00;5306537;28;20035;-69
2022/09/22 09:57:17;;;;;;;5.47;4.80;;;;;;;14.93;59.96;102114.66;5319371;28;20470;-69
2022/09/22 10:00:30;;;;;;;6.72;5.00;;;;;;;15.03;58.83;102110.94;5317375;28;20047;-69
2022/09/22 10:03:01;;;;;;;5.07;4.55;;;;;;;15.03;58.14;102099.78;5321783;28;20494;-69
2022/09/22 10:05:36;;;;;;;6.13;4.05;;;;;;;15.16;58.85;102099.16;5305868;28;20157;-69
2022/09/22 10:08:20;;;;;;;4.65;3.92;;;;;;;15.20;57.85;102096.59;5309983;28;20081;-69
2022/09/22 10:10:57;;;;;;;7.20;4.65;;;;;;;15.17;58.55;102094.38;5321139;28;20470;-68
2022/09/22 10:13:32;;;;;;;6.90;4.32;;;;;;;15.27;58.87;102087.91;5327036;28;20032;-68
2022/09/22 10:16:21;;;;;;;5.82;4.65;;;;;;;15.25;58.45;102090.97;5321700;28;20028;-69
2022/09/22 10:19:23;;;;;;;5.90;5.10;;;;;;;15.38;58.77;102093.09;5317796;28;20532;-69
2022/09/22 10:22:19;;;;;;;5.60;4.25;;;;;;;15.38;57.74;102095.06;5320279;28;20028;-69
2022/09/22 10:24:54;;;;;;;4.60;3.70;;;;;;;15.50;60.20;102094.69;5321251;28;20055;-69
2022/09/22 10:27:28;;;;;;;4.32;3.80;;;;;;;15.64;57.55;102093.69;5321978;28;20462;-69
2022/09/22 10:30:09;;;;;;;4.93;3.70;;;;;;;15.63;57.50;102086.44;5309588;28;20043;-69
2022/09/22 10:32:41;;;;;;;5.75;3.95;;;;;;;15.63;56.48;102080.84;5302190;28;20036;-69
2022/09/22 10:35:29;;;;;;;5.28;3.35;;;;;;;15.74;57.80;102070.44;5315636;28;20824;-67
2022/09/22 10:38:12;;;;;;;4.20;2.90;;;;;;;15.93;58.10;102073.34;5313073;28;20023;-68
2022/09/22 10:40:49;;;;;;;4.03;3.50;;;;;;;15.88;54.68;102073.38;5323057;28;20032;-70
2022/09/22 10:43:39;;;;;;;6.43;3.30;;;;;;;15.92;55.50;102066.06;5324025;28;20094;-67
2022/09/22 10:46:19;;;;;;;3.53;3.22;;;;;;;16.12;55.11;102066.97;5317908;28;20024;-67
2022/09/22 10:48:57;;;;;;;3.97;2.92;;;;;;;16.24;63.88;102061.78;5302897;28;20498;-68
2022/09/22 10:51:47;;;;;;;3.65;2.85;;;;;;;16.19;54.41;102059.06;5309136;28;20054;-67
2022/09/22 10:54:32;;;;;;;5.43;3.08;;;;;;;16.18;53.06;102062.97;5314586;28;20032;-68
2022/09/22 10:57:17;;;;;;;5.90;3.30;;;;;;;16.34;54.88;102056.06;5303824;28;20028;-68
2022/09/22 11:00:10;;;;;;;9.73;6.60;;;;;;;16.36;53.57;102069.75;5317642;28;20482;-68
2022/09/22 11:03:07;;;;;;;4.13;3.65;;;;;;;16.36;53.25;102065.00;5325531;28;20043;-69
2022/09/22 11:12:16;;;;;;;5.30;2.95;;;;;;;16.64;52.00;102051.16;5323146;28;20048;-70
2022/09/22 11:14:52;;;;;;;3.25;2.42;;;;;;;16.71;51.33;102048.84;5320359;28;20020;-70
2022/09/22 11:17:40;;;;;;;3.38;3.08;;;;;;;16.75;52.12;102044.31;5325671;28;20036;-72
2022/09/22 11:20:36;;;;;;;2.70;2.50;;;;;;;16.77;51.86;102046.78;5325104;28;20039;-70
2022/09/22 11:23:26;;;;;;;2.58;2.03;;;;;;;16.85;49.60;102043.34;5324710;28;20475;-69
2022/09/22 11:26:21;;;;;;;4.25;2.65;;;;;;;16.95;51.30;102038.41;5324744;28;20062;-70
2022/09/22 11:29:31;;;;;;;18.52;14.52;;;;;;;17.04;52.10;102037.72;5305764;28;20028;-68
2022/09/22 11:32:27;;;;;;;3.40;2.47;;;;;;;17.12;49.92;102031.41;5313108;28;20040;-68
2022/09/22 11:34:58;;;;;;;6.40;2.35;;;;;;;17.08;50.06;102036.81;5302954;28;20063;-69
2022/09/22 11:37:53;;;;;;;2.83;1.75;;;;;;;17.11;48.83;102039.00;5320649;28;20063;-68
2022/09/22 11:40:34;;;;;;;3.58;1.90;;;;;;;17.15;49.58;102028.84;5314990;28;20028;-68
2022/09/22 11:43:14;;;;;;;2.08;1.73;;;;;;;17.28;48.35;102029.19;5319945;28;20023;-68
2022/09/22 11:46:15;;;;;;;3.00;1.92;;;;;;;17.32;48.71;102031.06;5315390;28;20024;-68
2022/09/22 11:49:32;;;;;;;3.03;2.10;;;;;;;17.23;48.31;102018.91;5306030;28;20039;-69
2022/09/22 11:52:45;;;;;;;4.72;1.88;;;;;;;17.14;48.10;102003.94;5319529;28;20084;-69
2022/09/22 11:55:41;;;;;;;2.03;1.40;;;;;;;17.30;48.24;102010.91;5301863;28;20032;-69
2022/09/22 11:58:17;;;;;;;2.67;1.67;;;;;;;17.40;46.67;101995.91;5322883;28;20042;-69
2022/09/22 12:00:55;;;;;;;4.97;1.73;;;;;;;17.61;45.77;101999.16;5323052;28;20065;-69
2022/09/22 12:03:51;;;;;;;2.35;1.70;;;;;;;17.67;45.96;101992.31;5303191;28;20093;-69
2022/09/22 12:06:30;;;;;;;6.10;1.48;;;;;;;17.91;46.16;101996.94;5303204;28;20043;-69
2022/09/22 12:09:10;;;;;;;4.65;2.15;;;;;;;17.86;44.83;101995.03;5303185;28;20064;-72
2022/09/22 12:11:41;;;;;;;3.53;1.55;;;;;;;17.89;44.50;101990.78;5318324;28;20023;-71
2022/09/22 12:14:14;;;;;;;5.45;2.08;;;;;;;17.95;45.93;101983.94;5323796;28;20034;-71
2022/09/22 12:17:04;;;;;;;3.58;2.17;;;;;;;17.97;46.59;101979.69;5313764;28;20028;-69
2022/09/22 12:19:47;;;;;;;3.38;2.53;;;;;;;17.98;45.90;101974.91;5324222;28;20023;-69
2022/09/22 12:22:32;;;;;;;16.83;12.98;;;;;;;18.09;45.26;101970.72;5319821;28;20043;-70
2022/09/22 12:25:04;;;;;;;3.22;2.30;;;;;;;17.86;45.25;101968.97;5312174;28;20027;-70
2022/09/22 12:27:35;;;;;;;2.17;1.60;;;;;;;17.79;45.79;101967.41;5324605;28;20092;-70
2022/09/22 12:30:20;;;;;;;2.60;1.60;;;;;;;17.81;46.95;101958.69;5313856;28;20028;-70
2022/09/22 12:32:52;;;;;;;2.72;2.28;;;;;;;17.76;46.81;101959.56;5305068;28;20036;-70
2022/09/22 12:35:29;;;;;;;4.57;2.05;;;;;;;17.77;45.66;101955.63;5323833;28;20095;-69
2022/09/22 12:38:01;;;;;;;2.97;1.60;;;;;;;17.92;45.41;101953.69;5322580;28;20516;-69
2022/09/22 12:40:40;;;;;;;2.38;1.70;;;;;;;17.96;45.23;101943.50;5311827;28;20055;-68
2022/09/22 12:43:18;;;;;;;4.35;1.80;;;;;;;18.14;44.96;101945.34;5324203;28;20031;-69
2022/09/22 12:45:55;;;;;;;3.90;2.10;;;;;;;18.35;44.96;101933.66;5320746;28;20034;-69
2022/09/22 12:48:29;;;;;;;2.75;1.50;;;;;;;18.42;44.68;101937.69;5328650;28;20019;-69
2022/09/22 12:51:23;;;;;;;4.40;1.52;;;;;;;18.66;44.19;101931.78;5327997;28;20035;-69
2022/09/22 12:54:19;;;;;;;4.95;1.65;;;;;;;18.79;43.35;101932.91;5313398;28;20524;-69
2022/09/22 12:56:59;;;;;;;3.95;1.90;;;;;;;19.01;42.87;101934.03;5328263;28;20103;-69
2022/09/22 12:59:36;;;;;;;3.83;1.67;;;;;;;19.06;43.04;101936.72;5327521;28;20085;-70
2022/09/22 13:02:14;;;;;;;1.73;1.30;;;;;;;19.10;42.14;101930.13;5322282;28;20035;-70
2022/09/22 13:04:48;;;;;;;3.20;1.60;;;;;;;19.20;41.89;101925.38;5328314;28;20070;-70
2022/09/22 13:07:32;;;;;;;3.13;1.35;;;;;;;19.35;42.70;101927.78;5327206;28;20059;-69
2022/09/22 13:10:21;;;;;;;3.38;1.80;;;;;;;19.28;42.05;101921.81;5319805;28;20114;-70
2022/09/22 13:13:01;;;;;;;2.97;1.50;;;;;;;19.30;42.09;101925.09;5326537;28;20024;-69
2022/09/22 13:15:45;;;;;;;2.80;1.50;;;;;;;19.30;42.73;101922.28;5326490;28;20191;-68
2022/09/22 13:18:36;;;;;;;2.28;1.80;;;;;;;19.34;41.31;101917.69;5328308;28;20027;-68
2022/09/22 13:21:13;;;;;;;3.70;1.80;;;;;;;19.08;41.86;101924.00;5319707;28;20028;-68
2022/09/22 13:23:50;;;;;;;4.53;1.55;;;;;;;19.10;41.57;101916.06;5323316;28;20416;-69
2022/09/22 13:26:26;;;;;;;3.15;1.77;;;;;;;19.27;42.16;101914.50;5317688;28;20398;-67
2022/09/22 13:29:19;;;;;;;3.75;2.33;;;;;;;19.47;42.52;101915.94;5327078;28;20020;-67
2022/09/22 13:31:56;;;;;;;3.40;1.80;;;;;;;19.51;41.65;101914.13;5327821;28;20119;-67
2022/09/22 13:34:34;;;;;;;2.75;1.67;;;;;;;19.51;40.84;101908.50;5326527;28;20027;-65
2022/09/22 13:37:16;;;;;;;2.75;1.35;;;;;;;19.66;40.94;101901.59;5327739;28;20023;-66
2022/09/22 13:39:52;;;;;;;3.47;1.80;;;;;;;19.70;41.48;101899.81;5312344;28;20028;-67
2022/09/22 13:42:32;;;;;;;4.03;1.88;;;;;;;19.66;41.03;101895.97;5319487;28;20084;-69
2022/09/22 13:45:17;;;;;;;3.53;1.60;;;;;;;19.70;40.59;101899.81;5321944;28;20031;-70
2022/09/22 13:47:49;;;;;;;3.53;1.48;;;;;;;19.66;41.04;101891.19;5309688;28;20032;-70
2022/09/22 13:50:21;;;;;;;3.22;1.63;;;;;;;19.54;40.17;101891.78;5310820;28;20036;-68
2022/09/22 13:52:53;;;;;;;3.25;1.65;;;;;;;19.51;40.68;101883.19;5327543;28;20519;-68
2022/09/22 13:55:32;;;;;;;5.80;2.25;;;;;;;19.35;40.94;101879.97;5322812;27;20031;-69
2022/09/22 13:58:10;;;;;;;3.42;1.50;;;;;;;19.40;41.08;101874.19;5322360;28;20480;-67
2022/09/22 14:00:55;;;;;;;4.32;1.40;;;;;;;19.40;41.44;101874.19;5318034;28;20131;-68
2022/09/22 14:03:28;;;;;;;4.63;2.53;;;;;;;19.25;41.71;101872.66;5326116;28;20386;-68
2022/09/22 14:05:59;;;;;;;3.58;1.42;;;;;;;19.28;42.31;101879.63;5327074;28;20027;-68
2022/09/22 14:08:31;;;;;;;20.50;16.27;;;;;;;19.30;41.72;101866.03;5326609;28;20019;-68
2022/09/22 14:11:07;;;;;;;6.07;4.50;;;;;;;19.26;41.91;101865.03;5314242;28;20383;-67
2022/09/22 14:13:41;;;;;;;3.17;1.90;;;;;;;19.21;42.08;101859.56;5326351;28;20023;-67
2022/09/22 14:16:15;;;;;;;2.08;1.58;;;;;;;19.26;41.82;101865.03;5317980;28;20046;-67
2022/09/22 14:19:03;;;;;;;2.90;1.88;;;;;;;19.17;42.51;101859.38;5325854;28;20742;-68
2022/09/22 14:21:48;;;;;;;3.45;2.13;;;;;;;19.22;41.97;101862.03;5326432;28;20112;-68
2022/09/22 14:24:19;;;;;;;3.53;1.90;;;;;;;19.11;41.98;101852.22;5325824;28;20028;-67
2022/09/22 14:26:54;;;;;;;3.22;1.90;;;;;;;19.11;42.05;101853.06;5326557;28;20041;-68
2022/09/22 14:29:31;;;;;;;2.67;1.73;;;;;;;19.21;41.99;101848.31;5326203;28;20012;-68
2022/09/22 14:32:05;;;;;;;5.88;2.30;;;;;;;19.33;42.31;101840.09;5325590;28;20474;-68
2022/09/22 14:34:37;;;;;;;3.42;1.88;;;;;;;19.33;42.81;101840.09;5321959;28;20036;-68
2022/09/22 14:37:26;;;;;;;2.83;1.60;;;;;;;19.44;42.81;101837.81;5325459;28;20038;-65
2022/09/22 14:40:01;;;;;;;4.93;1.65;;;;;;;19.38;41.30;101842.75;5322615;28;20356;-69
2022/09/22 14:42:33;;;;;;;3.58;1.50;;;;;;;19.34;41.04;101839.75;5305140;28;20482;-69
2022/09/22 14:45:07;;;;;;;3.92;3.53;;;;;;;19.39;42.06;101833.16;5311564;28;20028;-69
2022/09/22 14:47:39;;;;;;;3.45;1.92;;;;;;;19.36;41.75;101819.75;5305168;28;20401;-71
2022/09/22 14:50:36;;;;;;;2.53;1.80;;;;;;;19.29;41.67;101830.63;5308743;28;20032;-71
2022/09/22 14:53:20;;;;;;;4.38;1.88;;;;;;;19.37;41.70;101831.81;5324950;28;20027;-69
2022/09/22 14:55:58;;;;;;;2.77;1.80;;;;;;;19.31;43.28;101831.16;5317150;28;20036;-69
2022/09/22 14:58:34;;;;;;;2.47;1.58;;;;;;;19.24;41.90;101831.63;5325061;28;20028;-69
2022/09/22 15:04:29;;;;;;;1.92;1.50;;;;;;;19.29;42.27;101819.41;5325964;28;20419;-70
2022/09/22 15:07:03;;;;;;;2.20;1.50;;;;;;;19.29;41.56;101827.84;5322769;28;20033;-70
2022/09/22 15:09:39;;;;;;;3.97;2.00;;;;;;;19.21;42.13;101820.19;5318549;28;20031;-69
2022/09/22 15:12:30;;;;;;;2.58;1.70;;;;;;;19.22;42.78;101827.47;5323069;28;20019;-69
2022/09/22 15:15:01;;;;;;;2.83;1.77;;;;;;;19.20;42.88;101810.94;5320265;28;20308;-70
2022/09/22 15:20:57;;;;;;;4.68;1.80;;;;;;;19.09;42.58;101812.38;5304075;28;20621;-68
2022/09/22 15:23:40;;;;;;;5.25;3.40;;;;;;;19.13;42.46;101807.75;5303183;28;20427;-67
2022/09/22 15:26:23;;;;;;;3.10;2.20;;;;;;;19.06;42.10;101813.84;5304599;28;20043;-70
2022/09/22 15:28:57;;;;;;;3.42;1.90;;;;;;;18.98;42.29;101805.38;5306690;28;20170;-69
2022/09/22 15:31:28;;;;;;;3.67;2.20;;;;;;;18.95;43.81;101798.44;5325398;28;20035;-69
2022/09/22 15:34:01;;;;;;;4.63;1.98;;;;;;;18.94;42.82;101802.38;5322894;28;20024;-68
2022/09/22 15:36:43;;;;;;;3.65;1.80;;;;;;;18.92;42.60;101796.28;5308428;28;20027;-67
2022/09/22 15:39:22;;;;;;;18.08;4.03;;;;;;;18.97;43.20;101800.91;5309153;28;20035;-68
2022/09/22 15:41:56;;;;;;;4.63;1.90;;;;;;;18.99;42.94;101801.41;5311315;28;20058;-68
2022/09/22 15:44:29;;;;;;;3.20;1.52;;;;;;;18.93;43.29;101800.72;5303745;28;20020;-68
2022/09/22 15:47:00;;;;;;;3.35;1.60;;;;;;;18.88;42.19;101795.25;5322986;28;20028;-68
2022/09/22 15:49:33;;;;;;;2.40;1.52;;;;;;;18.88;42.89;101796.06;5323877;28;20080;-69
2022/09/22 15:52:05;;;;;;;2.28;1.77;;;;;;;18.85;42.34;101793.09;5325586;28;20024;-68
2022/09/22 15:54:36;;;;;;;2.63;1.70;;;;;;;18.86;42.48;101789.09;5324272;28;20020;-68
2022/09/22 15:57:08;;;;;;;3.60;1.85;;;;;;;18.89;42.59;101794.09;5311616;28;20043;-69
2022/09/22 15:59:41;;;;;;;3.03;2.10;;;;;;;18.75;42.42;101797.00;5323784;28;20412;-69
2022/09/22 16:02:14;;;;;;;4.63;2.22;;;;;;;18.70;43.64;101788.69;5324208;28;20036;-68
2022/09/22 16:04:46;;;;;;;2.22;1.85;;;;;;;18.78;43.09;101789.91;5324967;28;20072;-68
2022/09/22 16:07:18;;;;;;;3.55;1.70;;;;;;;18.78;43.57;101787.09;5325107;28;20035;-68
2022/09/22 16:09:49;;;;;;;3.58;1.63;;;;;;;18.69;42.53;101785.03;5322230;28;20471;-68
2022/09/22 16:12:21;;;;;;;3.42;1.55;;;;;;;18.61;43.33;101776.53;5312397;28;20032;-69
2022/09/22 16:14:53;;;;;;;5.95;1.80;;;;;;;18.57;43.58;101778.34;5312904;28;20020;-69
2022/09/22 16:17:25;;;;;;;3.72;1.77;;;;;;;18.58;43.56;101780.81;5323540;28;20024;-69
2022/09/22 16:19:59;;;;;;;1.50;1.30;;;;;;;18.59;43.94;101785.31;5325146;28;20027;-68
2022/09/22 16:22:30;;;;;;;2.47;1.83;;;;;;;18.51;44.21;101777.66;5326676;28;20043;-67
2022/09/22 16:25:03;;;;;;;5.40;1.83;;;;;;;18.51;44.01;101776.81;5329017;28;20051;-68
2022/09/22 16:27:35;;;;;;;3.58;1.83;;;;;;;18.48;45.16;101778.28;5329371;28;20020;-67
2022/09/22 16:30:07;;;;;;;5.65;1.95;;;;;;;18.31;44.92;101773.41;5327860;28;20455;-69
2022/09/22 16:32:40;;;;;;;4.07;1.70;;;;;;;18.39;45.56;101775.44;5328043;28;20027;-68
2022/09/22 16:35:12;;;;;;;6.03;2.15;;;;;;;18.33;45.00;101765.50;5307789;28;20447;-68
2022/09/22 16:37:43;;;;;;;3.22;1.65;;;;;;;18.32;45.26;101771.41;5306867;28;20035;-68
2022/09/22 16:40:15;;;;;;;5.20;1.70;;;;;;;18.24;44.79;101767.41;5326433;28;20122;-68
2022/09/22 16:42:47;;;;;;;2.38;1.50;;;;;;;18.14;45.29;101768.47;5328588;28;20035;-71
2022/09/22 16:46:25;;;;;;;7.07;5.40;;;;;;;18.07;45.86;101767.25;5327832;28;20020;-66
2022/09/22 16:48:10;;;;;;;10.02;7.68;;;;;;;18.04;46.83;101775.16;5328325;28;20024;-71
2022/09/22 16:50:41;;;;;;;8.15;4.47;;;;;;;17.93;46.88;101770.13;5326466;28;20474;-66
2022/09/22 16:53:15;;;;;;;6.68;2.53;;;;;;;17.99;47.01;101768.84;5311263;28;20024;-67
2022/09/22 16:55:47;;;;;;;6.68;2.15;;;;;;;17.90;47.34;101767.97;5327928;28;20027;-70
2022/09/22 16:58:19;;;;;;;5.50;3.78;;;;;;;17.91;47.73;101767.63;5326893;28;20024;-71
2022/09/22 17:00:50;;;;;;;4.50;3.10;;;;;;;17.88;47.66;101761.84;5328121;28;20040;-70
2022/09/22 17:03:22;;;;;;;7.60;3.38;;;;;;;17.86;47.61;101761.31;5327679;28;20023;-70
2022/09/22 17:06:09;;;;;;;6.18;2.22;;;;;;;17.83;48.17;101759.16;5327575;28;20103;-68
2022/09/22 17:08:42;;;;;;;3.13;2.35;;;;;;;17.75;48.44;101760.72;5310772;28;20493;-70
2022/09/22 17:11:14;;;;;;;4.22;2.50;;;;;;;17.67;49.21;101762.28;5306347;28;20081;-71
2022/09/22 17:13:46;;;;;;;5.55;2.60;;;;;;;17.63;49.18;101764.06;5306173;28;20471;-69
2022/09/22 17:16:29;;;;;;;6.13;4.38;;;;;;;17.57;49.68;101754.94;5318637;28;20096;-68
2022/09/22 17:19:25;;;;;;;5.57;3.40;;;;;;;17.56;49.99;101760.84;5327312;28;20147;-68
2022/09/22 17:21:56;;;;;;;7.95;4.57;;;;;;;17.44;50.40;101747.38;5327388;28;20455;-68
2022/09/22 17:24:30;;;;;;;6.07;3.70;;;;;;;17.40;50.47;101751.94;5320399;28;20085;-68
2022/09/22 17:27:01;;;;;;;5.65;3.65;;;;;;;17.35;50.89;101747.28;5305738;28;20091;-68
2022/09/22 17:29:33;;;;;;;6.05;2.97;;;;;;;17.30;51.17;101750.19;5306506;28;20020;-68
2022/09/22 17:32:06;;;;;;;6.82;3.20;;;;;;;17.13;51.66;101758.44;5315971;28;20015;-68
